createdAt,value
2018-09-05T00:02:03.834Z,21.50
2018-09-05T00:04:34.003Z,21.40
2018-09-05T00:07:04.427Z,21.50
2018-09-05T00:09:35.824Z,21.50
2018-09-05T00:12:07.758Z,21.50
2018-09-05T00:14:38.015Z,21.60
2018-09-05T00:17:08.378Z,21.60
2018-09-05T00:19:40.404Z,21.50
2018-09-05T00:22:10.540Z,21.50
2018-09-05T00:24:40.741Z,21.50
2018-09-05T00:27:11.229Z,21.50
2018-09-05T00:29:41.487Z,21.60
2018-09-05T00:32:11.635Z,21.50
2018-09-05T00:34:42.131Z,21.50
2018-09-05T00:37:12.477Z,21.50
2018-09-05T00:39:42.648Z,20.90
2018-09-05T00:42:12.964Z,21.50
2018-09-05T00:44:43.605Z,21.50
2018-09-05T00:47:14.972Z,21.50
2018-09-05T00:49:45.218Z,21.50
2018-09-05T00:52:15.434Z,21.50
2018-09-05T00:54:45.770Z,21.50
2018-09-05T00:57:15.948Z,21.40
2018-09-05T00:59:46.299Z,21.40
2018-09-05T01:02:17.154Z,21.30
2018-09-05T01:04:47.671Z,21.30
2018-09-05T01:07:25.405Z,21.30
2018-09-05T01:09:55.596Z,21.30
2018-09-05T01:12:26.274Z,21.20
2018-09-05T01:14:56.695Z,19.60
2018-09-05T01:17:28.306Z,21.00
2018-09-05T01:19:59.579Z,21.10
2018-09-05T01:22:29.715Z,21.10
2018-09-05T01:25:00.182Z,21.20
2018-09-05T01:27:31.589Z,21.20
2018-09-05T01:30:01.778Z,21.20
2018-09-05T01:32:32.354Z,21.20
2018-09-05T01:35:02.739Z,21.10
2018-09-05T01:37:32.948Z,21.10
2018-09-05T01:40:03.940Z,21.10
2018-09-05T01:42:34.341Z,21.20
2018-09-05T01:45:05.411Z,21.10
2018-09-05T01:47:36.575Z,21.10
2018-09-05T01:50:08.488Z,21.10
2018-09-05T01:52:38.922Z,21.10
2018-09-05T01:55:09.395Z,21.10
2018-09-05T01:57:41.031Z,21.10
2018-09-05T02:00:15.761Z,21.00
2018-09-05T02:02:46.012Z,21.00
2018-09-05T02:05:17.203Z,21.00
2018-09-05T02:07:47.825Z,20.90
2018-09-05T02:10:18.065Z,20.90
2018-09-05T02:12:48.310Z,21.50
2018-09-05T02:15:18.488Z,20.90
2018-09-05T02:17:48.606Z,20.90
2018-09-05T02:20:18.759Z,20.90
2018-09-05T02:22:50.472Z,20.90
2018-09-05T02:25:20.690Z,20.90
2018-09-05T02:27:51.314Z,20.90
2018-09-05T02:30:21.591Z,20.90
2018-09-05T02:32:52.939Z,20.90
2018-09-05T02:35:23.115Z,20.80
2018-09-05T02:37:53.274Z,20.80
2018-09-05T02:40:23.536Z,20.80
2018-09-05T02:42:54.129Z,20.80
2018-09-05T02:45:24.464Z,20.70
2018-09-05T02:47:55.571Z,20.60
2018-09-05T02:50:25.820Z,20.60
2018-09-05T02:52:55.988Z,20.60
2018-09-05T02:55:31.434Z,20.60
2018-09-05T02:58:01.567Z,20.60
2018-09-05T03:00:32.697Z,20.60
2018-09-05T03:03:02.891Z,20.70
2018-09-05T03:05:33.872Z,20.60
2018-09-05T03:08:05.401Z,20.60
2018-09-05T03:10:35.616Z,20.60
2018-09-05T03:13:05.798Z,20.60
2018-09-05T03:15:37.168Z,20.70
2018-09-05T03:18:07.371Z,20.70
2018-09-05T03:20:37.561Z,20.70
2018-09-05T03:23:07.967Z,22.40
2018-09-05T03:25:38.301Z,20.70
2018-09-05T03:28:09.292Z,20.70
2018-09-05T03:30:40.978Z,20.70
2018-09-05T03:33:11.243Z,20.60
2018-09-05T03:35:41.438Z,20.60
2018-09-05T03:38:11.915Z,20.20
2018-09-05T03:40:42.027Z,20.60
2018-09-05T03:43:12.145Z,20.70
2018-09-05T03:45:43.207Z,20.70
2018-09-05T03:48:13.343Z,20.60
2018-09-05T03:51:33.703Z,20.60
2018-09-05T03:54:04.032Z,20.70
2018-09-05T03:56:34.594Z,20.60
2018-09-05T03:59:04.878Z,18.90
2018-09-05T04:01:35.078Z,20.60
2018-09-05T04:04:05.712Z,20.50
2018-09-05T04:06:35.978Z,20.40
2018-09-05T04:09:08.938Z,20.40
2018-09-05T04:11:39.409Z,19.90
2018-09-05T04:14:09.576Z,20.10
2018-09-05T04:16:39.685Z,20.50
2018-09-05T04:19:11.183Z,20.50
2018-09-05T04:21:41.531Z,20.50
2018-09-05T04:24:13.210Z,20.60
2018-09-05T04:26:43.750Z,20.60
2018-09-05T04:29:13.946Z,20.60
2018-09-05T04:31:44.095Z,20.50
2018-09-05T04:34:14.527Z,20.50
2018-09-05T04:36:44.751Z,20.50
2018-09-05T04:39:14.987Z,20.40
2018-09-05T04:41:45.747Z,20.40
2018-09-05T04:44:16.988Z,20.30
2018-09-05T04:46:47.091Z,20.30
2018-09-05T04:49:17.831Z,20.40
2018-09-05T04:51:48.159Z,20.40
2018-09-05T04:54:18.893Z,20.30
2018-09-05T04:56:49.553Z,20.40
2018-09-05T04:59:21.424Z,20.50
2018-09-05T05:01:51.667Z,20.50
2018-09-05T05:04:22.483Z,20.50
2018-09-05T05:06:53.476Z,20.50
2018-09-05T05:09:24.581Z,20.50
2018-09-05T05:11:57.962Z,20.60
2018-09-05T05:14:30.056Z,20.50
2018-09-05T05:17:00.537Z,20.50
2018-09-05T05:19:33.341Z,20.60
2018-09-05T05:22:05.089Z,20.60
2018-09-05T05:24:37.787Z,20.70
2018-09-05T05:27:08.400Z,20.80
2018-09-05T05:29:40.135Z,20.80
2018-09-05T05:32:13.261Z,20.90
2018-09-05T05:34:45.234Z,20.90
2018-09-05T05:37:15.908Z,20.90
2018-09-05T05:39:49.463Z,21.00
2018-09-05T05:42:20.173Z,21.10
2018-09-05T05:44:51.650Z,21.20
2018-09-05T05:47:34.734Z,21.30
2018-09-05T05:50:08.411Z,21.30
2018-09-05T05:52:41.416Z,21.30
2018-09-05T05:55:12.151Z,21.40
2018-09-05T05:57:42.439Z,21.40
2018-09-05T06:00:13.140Z,21.50
2018-09-05T06:02:44.312Z,21.60
2018-09-05T06:05:14.738Z,21.60
2018-09-05T06:07:45.019Z,21.60
2018-09-05T06:10:15.840Z,21.70
2018-09-05T06:12:46.503Z,21.80
2018-09-05T06:15:16.798Z,21.00
2018-09-05T06:17:48.223Z,22.10
2018-09-05T06:20:18.599Z,22.40
2018-09-05T06:22:49.409Z,22.50
2018-09-05T06:25:20.462Z,22.70
2018-09-05T06:27:51.659Z,22.80
2018-09-05T06:30:22.818Z,22.80
2018-09-05T06:32:53.357Z,22.90
2018-09-05T06:35:25.641Z,23.10
2018-09-05T06:37:58.750Z,23.30
2018-09-05T06:40:29.867Z,23.50
2018-09-05T06:43:04.048Z,23.70
2018-09-05T06:45:34.456Z,23.90
2018-09-05T06:48:04.966Z,24.10
2018-09-05T06:50:36.055Z,24.30
2018-09-05T06:53:06.641Z,24.40
2018-09-05T06:55:43.079Z,24.50
2018-09-05T06:58:15.777Z,24.60
2018-09-05T07:00:46.504Z,24.80
2018-09-05T07:03:23.061Z,25.00
2018-09-05T07:05:59.009Z,25.00
2018-09-05T07:08:29.485Z,25.00
2018-09-05T07:11:00.518Z,25.10
2018-09-05T07:13:32.296Z,25.20
2018-09-05T07:16:04.539Z,25.30
2018-09-05T07:18:37.132Z,25.30
2018-09-05T07:21:09.525Z,25.30
2018-09-05T07:23:40.742Z,25.40
2018-09-05T07:26:11.357Z,25.50
2018-09-05T07:28:42.917Z,25.60
2018-09-05T07:31:14.060Z,25.60
2018-09-05T07:33:44.931Z,25.60
2018-09-05T07:36:15.209Z,25.60
2018-09-05T07:38:46.936Z,25.60
2018-09-05T07:41:20.298Z,25.60
2018-09-05T07:43:52.331Z,25.70
2018-09-05T07:46:24.756Z,25.70
2018-09-05T07:48:55.297Z,25.80
2018-09-05T07:51:25.891Z,25.80
2018-09-05T07:53:56.422Z,25.80
2018-09-05T07:56:32.252Z,25.90
2018-09-05T07:59:04.223Z,25.90
2018-09-05T08:01:35.264Z,25.90
2018-09-05T08:04:07.076Z,25.90
2018-09-05T08:06:37.831Z,26.00
2018-09-05T08:09:12.380Z,26.00
2018-09-05T08:11:43.239Z,26.00
2018-09-05T08:14:13.931Z,26.00
2018-09-05T08:16:46.916Z,26.00
2018-09-05T08:19:17.847Z,26.10
2018-09-05T08:21:50.621Z,26.10
2018-09-05T08:24:22.036Z,26.20
2018-09-05T08:26:54.471Z,26.20
2018-09-05T08:29:25.355Z,26.20
2018-09-05T08:31:56.384Z,26.10
2018-09-05T08:34:29.746Z,26.10
2018-09-05T08:37:01.868Z,26.10
2018-09-05T08:39:32.417Z,26.00
2018-09-05T08:42:10.614Z,25.80
2018-09-05T08:44:41.511Z,26.00
2018-09-05T08:47:11.857Z,26.00
2018-09-05T08:49:43.527Z,26.00
2018-09-05T08:52:14.027Z,26.20
2018-09-05T08:54:45.446Z,26.00
2018-09-05T08:57:16.938Z,25.90
2018-09-05T08:59:47.591Z,25.90
2018-09-05T09:02:19.951Z,26.00
2018-09-05T09:04:52.224Z,26.10
2018-09-05T09:07:23.376Z,26.40
2018-09-05T09:09:53.960Z,26.50
2018-09-05T09:12:25.495Z,26.50
2018-09-05T09:14:56.896Z,26.50
2018-09-05T09:17:27.720Z,26.40
2018-09-05T09:20:00.457Z,26.30
2018-09-05T09:22:31.525Z,26.00
2018-09-05T09:25:08.204Z,26.10
2018-09-05T09:27:38.717Z,26.30
2018-09-05T09:30:13.182Z,26.50
2018-09-05T09:32:44.405Z,26.50
2018-09-05T09:35:15.595Z,26.40
2018-09-05T09:37:51.443Z,26.40
2018-09-05T09:40:26.099Z,26.30
2018-09-05T09:42:59.226Z,26.20
2018-09-05T09:45:30.250Z,25.90
2018-09-05T09:48:07.410Z,26.30
2018-09-05T09:50:38.926Z,26.40
2018-09-05T09:53:12.100Z,26.50
2018-09-05T09:55:44.053Z,26.70
2018-09-05T09:58:15.094Z,26.80
2018-09-05T10:00:51.582Z,26.90
2018-09-05T10:03:28.728Z,27.00
2018-09-05T10:06:05.547Z,27.00
2018-09-05T10:10:44.147Z,26.80
2018-09-05T10:13:19.600Z,26.60
2018-09-05T10:15:55.643Z,26.10
2018-09-05T10:18:29.926Z,26.00
2018-09-05T10:21:04.295Z,25.80
2018-09-05T10:23:36.554Z,26.60
2018-09-05T10:26:08.570Z,26.70
2018-09-05T10:28:40.487Z,26.80
2018-09-05T10:31:12.943Z,27.10
2018-09-05T10:33:44.957Z,27.20
2018-09-05T10:36:15.531Z,27.20
2018-09-05T10:38:48.759Z,27.30
2018-09-05T10:41:19.452Z,27.30
2018-09-05T10:43:50.372Z,27.10
2018-09-05T10:46:21.697Z,27.20
2018-09-05T10:48:52.323Z,27.40
2018-09-05T10:52:30.543Z,27.50
2018-09-05T10:55:03.600Z,27.00
2018-09-05T10:57:35.860Z,26.60
2018-09-05T11:00:12.008Z,26.70
2018-09-05T11:02:43.396Z,26.30
2018-09-05T11:05:18.781Z,26.40
2018-09-05T11:07:52.237Z,26.70
2018-09-05T11:10:23.031Z,26.60
2018-09-05T11:12:55.115Z,26.50
2018-09-05T11:15:26.047Z,26.40
2018-09-05T11:17:57.917Z,26.20
2018-09-05T11:20:28.993Z,26.20
2018-09-05T11:23:00.208Z,26.60
2018-09-05T11:25:33.315Z,26.60
2018-09-05T11:28:04.744Z,26.70
2018-09-05T11:30:39.011Z,25.60
2018-09-05T11:33:10.427Z,27.00
2018-09-05T11:35:42.549Z,26.90
2018-09-05T11:38:16.519Z,26.30
2018-09-05T11:40:47.662Z,25.90
2018-09-05T11:43:23.268Z,26.20
2018-09-05T11:45:55.274Z,26.40
2018-09-05T11:48:27.044Z,26.60
2018-09-05T11:51:00.382Z,26.70
2018-09-05T11:53:32.581Z,26.80
2018-09-05T11:56:05.717Z,27.10
2018-09-05T11:58:38.831Z,27.30
2018-09-05T12:01:11.008Z,27.40
2018-09-05T12:03:44.018Z,27.00
2018-09-05T12:06:18.520Z,26.80
2018-09-05T12:08:49.971Z,26.60
2018-09-05T12:11:20.899Z,26.40
2018-09-05T12:13:56.869Z,26.70
2018-09-05T12:16:30.450Z,26.50
2018-09-05T12:19:05.312Z,26.40
2018-09-05T12:21:38.996Z,26.70
2018-09-05T12:24:10.421Z,27.00
2018-09-05T12:26:41.495Z,26.50
2018-09-05T12:29:14.409Z,25.90
2018-09-05T12:31:45.270Z,26.20
2018-09-05T12:34:17.374Z,26.50
2018-09-05T12:36:48.333Z,26.40
2018-09-05T12:39:21.276Z,26.60
2018-09-05T12:41:53.798Z,26.90
2018-09-05T12:44:26.900Z,26.70
2018-09-05T12:47:00.900Z,26.60
2018-09-05T12:49:31.928Z,26.80
2018-09-05T12:52:04.824Z,27.00
2018-09-05T12:54:35.773Z,27.20
2018-09-05T12:57:09.869Z,27.20
2018-09-05T12:59:46.661Z,27.00
2018-09-05T13:02:19.841Z,27.10
2018-09-05T13:04:57.481Z,27.10
2018-09-05T13:07:29.662Z,26.80
2018-09-05T13:10:03.729Z,26.80
2018-09-05T13:12:38.196Z,27.20
2018-09-05T13:15:11.411Z,26.90
2018-09-05T13:17:44.239Z,26.70
2018-09-05T13:20:17.757Z,26.90
2018-09-05T13:22:49.908Z,26.60
2018-09-05T13:25:23.388Z,25.70
2018-09-05T13:27:54.219Z,26.60
2018-09-05T13:30:27.145Z,26.50
2018-09-05T13:32:58.352Z,26.50
2018-09-05T13:35:33.843Z,26.60
2018-09-05T13:38:05.329Z,27.00
2018-09-05T13:40:38.314Z,26.90
2018-09-05T13:43:09.338Z,27.10
2018-09-05T13:45:42.301Z,27.20
2018-09-05T13:48:13.858Z,26.30
2018-09-05T13:50:45.243Z,27.10
2018-09-05T13:53:20.959Z,27.40
2018-09-05T13:55:52.589Z,27.40
2018-09-05T13:58:24.241Z,27.50
2018-09-05T14:00:56.469Z,27.50
2018-09-05T14:03:28.140Z,27.80
2018-09-05T14:06:08.666Z,27.90
2018-09-05T14:08:39.614Z,27.90
2018-09-05T14:11:12.885Z,27.50
2018-09-05T14:13:45.456Z,27.40
2018-09-05T14:16:16.839Z,27.40
2018-09-05T14:18:47.520Z,27.30
2018-09-05T14:21:23.693Z,27.50
2018-09-05T14:23:56.643Z,27.60
2018-09-05T14:26:27.675Z,27.40
2018-09-05T14:29:00.493Z,27.50
2018-09-05T14:31:33.191Z,27.30
2018-09-05T14:34:05.782Z,27.30
2018-09-05T14:36:40.780Z,27.20
2018-09-05T14:39:13.570Z,27.20
2018-09-05T14:41:45.092Z,27.00
2018-09-05T14:44:16.751Z,27.10
2018-09-05T14:46:48.745Z,27.10
2018-09-05T14:49:20.762Z,27.00
2018-09-05T14:51:53.603Z,26.90
2018-09-05T14:54:24.649Z,26.90
2018-09-05T14:56:56.219Z,27.00
2018-09-05T14:59:30.612Z,27.20
2018-09-05T15:02:03.861Z,27.40
2018-09-05T15:04:36.107Z,27.40
2018-09-05T15:07:15.883Z,27.10
2018-09-05T15:09:47.484Z,27.50
2018-09-05T15:12:21.021Z,27.40
2018-09-05T15:14:55.220Z,27.50
2018-09-05T15:17:28.423Z,27.60
2018-09-05T15:20:01.009Z,27.60
2018-09-05T15:22:34.695Z,27.50
2018-09-05T15:25:22.581Z,27.50
2018-09-05T15:27:53.818Z,27.40
2018-09-05T15:30:26.216Z,27.20
2018-09-05T15:32:57.423Z,26.60
2018-09-05T15:35:28.309Z,26.10
2018-09-05T15:38:04.874Z,26.10
2018-09-05T15:43:33.747Z,26.30
2018-09-05T15:46:10.406Z,26.40
2018-09-05T15:48:46.157Z,26.30
2018-09-05T15:51:27.295Z,26.30
2018-09-05T15:54:06.389Z,26.40
2018-09-05T15:56:45.676Z,26.60
2018-09-05T15:59:23.746Z,26.50
2018-09-05T16:02:04.311Z,26.20
2018-09-05T16:04:46.499Z,26.20
2018-09-05T16:10:11.626Z,26.20
2018-09-05T16:12:48.972Z,25.90
2018-09-05T16:15:29.909Z,27.20
2018-09-05T16:18:08.534Z,25.30
2018-09-05T16:20:42.338Z,25.00
2018-09-05T16:23:19.947Z,25.10
2018-09-05T16:25:59.095Z,25.10
2018-09-05T16:28:33.951Z,25.50
2018-09-05T16:31:12.234Z,25.20
2018-09-05T16:33:46.740Z,25.30
2018-09-05T16:36:25.245Z,25.20
2018-09-05T16:38:59.842Z,25.10
2018-09-05T16:41:36.267Z,25.00
2018-09-05T16:44:16.936Z,25.00
2018-09-05T16:46:55.010Z,24.90
2018-09-05T16:49:37.458Z,24.90
2018-09-05T16:52:19.723Z,24.90
2018-09-05T16:54:56.446Z,24.70
2018-09-05T16:57:33.988Z,24.60
2018-09-05T17:00:25.359Z,24.60
2018-09-05T17:03:04.553Z,24.60
2018-09-05T17:05:39.491Z,24.50
2018-09-05T17:08:17.971Z,24.40
2018-09-05T17:10:51.793Z,24.40
2018-09-05T17:13:29.322Z,24.30
2018-09-05T17:16:07.077Z,24.20
2018-09-05T17:18:40.557Z,26.00
2018-09-05T17:21:14.436Z,24.10
2018-09-05T17:23:47.225Z,23.90
2018-09-05T17:26:24.747Z,23.50
2018-09-05T17:29:05.399Z,23.20
2018-09-05T17:31:46.848Z,23.10
2018-09-05T17:34:28.242Z,23.00
2018-09-05T17:37:16.088Z,22.70
2018-09-05T17:39:55.220Z,22.80
2018-09-05T17:42:30.938Z,23.00
2018-09-05T17:48:14.115Z,23.40
2018-09-05T17:50:55.995Z,23.50
2018-09-05T17:53:41.855Z,23.40
2018-09-05T17:59:37.352Z,23.40
2018-09-05T18:02:09.230Z,23.40
2018-09-05T18:04:44.884Z,23.40
2018-09-05T18:07:26.707Z,23.50
2018-09-05T18:10:05.085Z,23.50
2018-09-05T18:12:45.639Z,23.50
2018-09-05T18:15:27.564Z,22.80
2018-09-05T18:18:07.833Z,22.20
2018-09-05T18:20:43.959Z,22.20
2018-09-05T18:23:33.135Z,22.20
2018-09-05T18:26:16.920Z,22.30
2018-09-05T18:28:53.929Z,22.60
2018-09-05T18:31:31.308Z,22.70
2018-09-05T18:34:12.217Z,22.90
2018-09-05T18:36:48.213Z,23.00
2018-09-05T18:42:09.898Z,23.10
2018-09-05T18:44:49.442Z,23.10
2018-09-05T18:47:32.956Z,23.10
2018-09-05T18:50:17.700Z,23.10
2018-09-05T18:53:01.672Z,23.10
2018-09-05T18:55:40.949Z,24.50
2018-09-05T18:58:30.407Z,23.00
2018-09-05T19:01:07.606Z,23.40
2018-09-05T19:03:47.076Z,23.00
2018-09-05T19:12:48.776Z,22.90
2018-09-05T19:15:22.313Z,23.00
2018-09-05T19:17:56.229Z,22.80
2018-09-05T19:20:29.810Z,22.80
2018-09-05T19:23:06.253Z,22.80
2018-09-05T19:28:28.849Z,22.90
2018-09-05T19:31:05.905Z,22.90
2018-09-05T19:33:47.547Z,22.90
2018-09-05T19:36:27.308Z,22.80
2018-09-05T19:39:09.952Z,22.80
2018-09-05T19:41:46.054Z,22.80
2018-09-05T19:44:19.509Z,22.90
2018-09-05T19:46:54.903Z,22.90
2018-09-05T19:49:39.373Z,22.80
2018-09-05T19:52:17.787Z,22.70
2018-09-05T19:54:53.894Z,23.60
2018-09-05T19:57:36.311Z,22.60
2018-09-05T20:03:00.515Z,22.50
2018-09-05T20:05:42.088Z,22.50
2018-09-05T20:11:05.273Z,22.50
2018-09-05T20:13:40.375Z,22.60
2018-09-05T20:16:18.889Z,22.60
2018-09-05T20:19:03.115Z,22.60
2018-09-05T20:21:40.044Z,22.50
2018-09-05T20:24:27.262Z,22.50
2018-09-05T20:31:37.191Z,22.30
2018-09-05T20:34:26.185Z,22.40
2018-09-05T20:39:44.840Z,22.50
2018-09-05T20:42:24.671Z,22.60
2018-09-05T20:44:59.569Z,22.50
2018-09-05T20:47:36.713Z,22.50
2018-09-05T20:50:17.503Z,22.30
2018-09-05T20:52:53.689Z,22.30
2018-09-05T20:55:32.966Z,22.40
2018-09-05T20:58:10.813Z,22.60
2018-09-05T21:00:45.370Z,22.50
2018-09-05T21:03:24.811Z,22.20
2018-09-05T21:06:04.331Z,22.00
2018-09-05T21:11:22.562Z,22.20
2018-09-05T21:13:56.392Z,21.10
2018-09-05T21:16:30.029Z,22.10
2018-09-05T21:19:18.902Z,22.20
2018-09-05T21:21:54.327Z,23.20
2018-09-05T21:24:27.687Z,22.30
2018-09-05T21:27:05.506Z,22.20
2018-09-05T21:29:41.575Z,22.10
2018-09-05T21:32:18.703Z,21.70
2018-09-05T21:34:57.347Z,21.80
2018-09-05T21:37:31.951Z,21.60
2018-09-05T21:40:19.136Z,22.30
2018-09-05T21:42:58.207Z,21.40
2018-09-05T21:48:33.020Z,21.50
2018-09-05T21:51:09.720Z,21.70
2018-09-05T21:53:47.299Z,21.70
2018-09-05T21:56:20.776Z,21.90
2018-09-05T21:58:55.837Z,21.50
2018-09-05T22:01:36.216Z,22.00
2018-09-05T22:04:14.261Z,22.00
2018-09-05T22:06:47.267Z,22.10
2018-09-05T22:09:19.865Z,22.10
2018-09-05T22:11:55.577Z,22.20
2018-09-05T22:14:30.034Z,22.20
2018-09-05T22:17:17.420Z,22.20
2018-09-05T22:19:57.078Z,22.20
2018-09-05T22:22:34.265Z,22.00
2018-09-05T22:25:34.346Z,21.90
2018-09-05T22:28:12.252Z,21.80
2018-09-05T22:30:45.510Z,22.00
2018-09-05T22:33:18.547Z,22.10
2018-09-05T22:35:53.687Z,22.00
2018-09-05T22:38:26.800Z,22.70
2018-09-05T22:41:07.179Z,21.90
2018-09-05T22:43:49.387Z,22.20
2018-09-05T22:46:31.236Z,22.00
2018-09-05T22:49:16.914Z,21.90
2018-09-05T22:52:00.264Z,21.90
2018-09-05T22:54:59.437Z,21.90
2018-09-05T23:07:05.403Z,21.80
2018-09-05T23:09:48.996Z,21.90
2018-09-05T23:14:35.937Z,21.40
2018-09-05T23:17:22.051Z,21.50
2018-09-05T23:20:09.945Z,21.60
2018-09-05T23:22:53.499Z,21.60
2018-09-05T23:25:29.541Z,21.70
2018-09-05T23:30:39.064Z,21.80
2018-09-05T23:33:17.101Z,21.70
2018-09-05T23:35:48.803Z,21.60
2018-09-05T23:38:19.947Z,21.70
2018-09-05T23:40:51.177Z,21.80
2018-09-05T23:43:24.359Z,21.50
2018-09-05T23:45:55.460Z,21.90
2018-09-05T23:48:28.866Z,22.40
2018-09-05T23:51:00.725Z,21.90
2018-09-05T23:53:36.832Z,21.80
2018-09-05T23:56:08.427Z,21.70
2018-09-05T23:58:42.638Z,21.80
